Time;durP1;ratioP1;P1;durP2;ratioP2;P2;SDS_P1;SDS_P2;PMS_P1;PMS_P2;Temp;Humidity;BMP_temperature;BMP_pressure;BME280_temperature;BME280_humidity;BME280_pressure;Samples;Min_cycle;Max_cycle;Signal;HPM_P1;HPM_P2
2023/08/09 00:00:50;;;;;;;82.60;52.33;;;18.90;85.40;;;;;;4945331;28;97409;-77
2023/08/09 00:03:16;;;;;;;81.57;52.15;;;18.90;85.60;;;;;;4955043;28;99490;-78
2023/08/09 00:05:41;;;;;;;83.07;52.53;;;18.90;85.70;;;;;;4941546;28;99988;-76
2023/08/09 00:08:07;;;;;;;83.18;52.40;;;18.90;85.60;;;;;;4959203;28;94364;-75
2023/08/09 00:10:34;;;;;;;82.18;52.30;;;18.90;85.60;;;;;;4940040;28;96064;-77
2023/08/09 00:13:00;;;;;;;81.60;52.28;;;18.90;85.70;;;;;;4946231;28;97535;-77
2023/08/09 00:15:25;;;;;;;82.18;52.17;;;18.90;85.60;;;;;;4935905;28;95984;-74
2023/08/09 00:17:51;;;;;;;81.53;52.42;;;18.90;85.70;;;;;;4968048;28;95070;-73
2023/08/09 00:20:17;;;;;;;81.15;52.05;;;18.90;85.90;;;;;;4940202;28;96572;-76
2023/08/09 00:22:42;;;;;;;82.88;52.58;;;18.90;86.00;;;;;;4943067;28;97576;-79
2023/08/09 00:25:10;;;;;;;82.50;52.63;;;18.90;85.60;;;;;;4929231;28;94730;-76
2023/08/09 00:27:37;;;;;;;82.75;52.65;;;18.90;85.70;;;;;;4962941;28;95747;-77
2023/08/09 00:30:03;;;;;;;81.97;52.63;;;18.90;85.60;;;;;;4942885;28;98882;-79
2023/08/09 00:32:29;;;;;;;83.25;52.55;;;18.90;85.60;;;;;;4935019;28;97962;-76
2023/08/09 00:34:55;;;;;;;82.75;52.38;;;18.90;85.90;;;;;;4949077;28;100060;-73
2023/08/09 00:37:21;;;;;;;81.25;52.33;;;18.90;85.80;;;;;;4971597;28;94651;-77
2023/08/09 00:39:46;;;;;;;81.60;52.22;;;18.90;85.60;;;;;;4936051;28;96720;-76
2023/08/09 00:42:12;;;;;;;83.47;52.55;;;18.90;85.60;;;;;;4933759;28;95178;-79
2023/08/09 00:44:38;;;;;;;82.82;52.33;;;18.90;85.70;;;;;;4951944;28;101872;-77
2023/08/09 00:47:07;;;;;;;81.70;52.33;;;18.90;85.90;;;;;;4947900;28;98893;-78
2023/08/09 00:49:32;;;;;;;80.63;52.15;;;18.90;85.60;;;;;;4941337;28;98714;-75
2023/08/09 00:51:59;;;;;;;82.60;52.30;;;18.90;85.70;;;;;;4943098;28;94872;-78
2023/08/09 00:54:25;;;;;;;81.93;52.35;;;18.90;85.60;;;;;;4955704;28;96357;-75
2023/08/09 00:56:52;;;;;;;81.57;52.13;;;18.90;85.70;;;;;;4952979;28;96691;-73
2023/08/09 00:59:17;;;;;;;82.57;52.13;;;18.90;85.70;;;;;;4940356;28;97071;-75
2023/08/09 01:01:43;;;;;;;82.70;52.53;;;18.90;85.70;;;;;;4923345;28;96405;-78
2023/08/09 01:04:09;;;;;;;83.43;52.28;;;18.90;85.60;;;;;;4947277;28;96903;-76
2023/08/09 01:06:59;;;;;;;81.45;52.20;;;18.90;85.70;;;;;;4953298;28;96292;-75
2023/08/09 01:09:49;;;;;;;82.20;52.05;;;18.90;85.70;;;;;;4937763;28;96100;-77
2023/08/09 01:12:27;;;;;;;81.93;52.08;;;18.90;85.80;;;;;;4920391;28;98191;-75
2023/08/09 01:14:57;;;;;;;81.35;52.40;;;18.90;86.80;;;;;;4951207;28;96591;-74
2023/08/09 01:17:27;;;;;;;81.35;52.08;;;18.90;85.90;;;;;;4955171;28;99526;-77
2023/08/09 01:19:55;;;;;;;82.00;52.08;;;18.90;85.90;;;;;;4944486;28;99434;-75
2023/08/09 01:22:26;;;;;;;81.68;52.03;;;18.90;85.80;;;;;;4954160;28;97258;-76
2023/08/09 01:24:52;;;;;;;82.23;52.13;;;18.90;85.80;;;;;;4945927;28;95142;-76
2023/08/09 01:27:17;;;;;;;82.13;52.22;;;18.90;85.90;;;;;;4971337;28;94740;-78
2023/08/09 01:29:43;;;;;;;82.35;52.25;;;18.90;85.90;;;;;;4943307;28;98412;-76
2023/08/09 01:32:09;;;;;;;81.15;52.17;;;18.90;85.90;;;;;;4952214;28;97431;-78
2023/08/09 01:34:36;;;;;;;81.95;52.15;;;18.90;85.90;;;;;;4939501;28;95870;-76
2023/08/09 01:37:22;;;;;;;81.28;52.22;;;18.90;85.90;;;;;;4966023;28;95271;-78
2023/08/09 01:39:50;;;;;;;82.10;52.15;;;18.90;86.00;;;;;;4934151;28;102539;-76
2023/08/09 01:42:16;;;;;;;82.70;52.42;;;18.90;86.00;;;;;;4951421;28;95597;-75
2023/08/09 01:44:43;;;;;;;80.53;51.70;;;18.90;86.20;;;;;;4928512;28;95439;-77
2023/08/09 01:47:09;;;;;;;82.60;52.25;;;18.90;86.20;;;;;;4967747;28;97952;-77
2023/08/09 01:49:35;;;;;;;82.55;52.42;;;18.90;86.10;;;;;;4944331;28;97989;-74
2023/08/09 01:52:01;;;;;;;80.88;52.10;;;18.90;86.10;;;;;;4950638;28;94879;-75
2023/08/09 01:54:27;;;;;;;80.60;51.92;;;18.90;86.20;;;;;;4940295;28;98965;-77
2023/08/09 01:56:53;;;;;;;81.03;52.10;;;18.80;86.00;;;;;;4951138;28;98047;-75
2023/08/09 01:59:18;;;;;;;82.28;52.13;;;18.80;86.30;;;;;;4967191;28;95391;-78
2023/08/09 02:01:44;;;;;;;81.05;51.95;;;18.90;86.30;;;;;;4936846;28;97086;-75
2023/08/09 02:04:10;;;;;;;80.78;52.00;;;18.80;86.40;;;;;;4945638;28;94782;-78
2023/08/09 02:06:38;;;;;;;81.13;52.13;;;18.90;87.20;;;;;;4954146;28;98654;-78
2023/08/09 02:09:06;;;;;;;82.57;51.97;;;18.80;86.90;;;;;;4939245;28;95674;-78
2023/08/09 02:11:31;;;;;;;83.03;52.38;;;18.80;86.20;;;;;;4965354;28;95871;-78
2023/08/09 02:13:57;;;;;;;82.38;52.33;;;18.80;86.20;;;;;;4950513;28;95144;-73
2023/08/09 02:16:23;;;;;;;81.55;52.17;;;18.80;86.20;;;;;;4925241;28;97602;-74
2023/08/09 02:18:48;;;;;;;80.80;52.15;;;18.80;86.30;;;;;;4954157;28;96014;-74
2023/08/09 02:21:14;;;;;;;81.20;52.17;;;18.80;86.30;;;;;;4939529;28;96513;-75
2023/08/09 02:23:40;;;;;;;81.82;52.13;;;18.80;86.30;;;;;;4965648;28;97918;-77
2023/08/09 02:26:07;;;;;;;82.88;52.15;;;18.80;86.50;;;;;;4942068;28;95164;-74
2023/08/09 02:28:33;;;;;;;81.20;52.25;;;18.80;86.40;;;;;;4945550;28;101261;-77
2023/08/09 02:30:59;;;;;;;83.82;52.47;;;18.80;86.50;;;;;;4958849;28;98856;-75
2023/08/09 02:33:25;;;;;;;81.38;52.15;;;18.80;86.40;;;;;;4954968;28;99829;-76
2023/08/09 02:35:56;;;;;;;82.03;52.42;;;18.80;86.40;;;;;;4955079;28;97902;-77
2023/08/09 02:38:23;;;;;;;81.45;52.53;;;18.80;86.50;;;;;;4941404;28;99088;-75
2023/08/09 02:40:49;;;;;;;80.75;51.90;;;18.80;86.60;;;;;;4946717;28;97196;-73
2023/08/09 02:43:19;;;;;;;81.55;52.30;;;18.80;86.60;;;;;;4946594;28;96061;-77
2023/08/09 02:45:46;;;;;;;81.80;52.15;;;18.80;86.50;;;;;;4939649;28;94989;-74
2023/08/09 02:48:12;;;;;;;82.13;52.28;;;18.80;86.50;;;;;;4945689;28;99123;-75
2023/08/09 02:50:39;;;;;;;82.40;52.50;;;18.80;86.70;;;;;;4950176;28;97735;-73
2023/08/09 02:53:05;;;;;;;81.50;52.22;;;18.80;87.50;;;;;;4958809;28;95684;-77
2023/08/09 02:55:31;;;;;;;80.57;51.95;;;18.80;86.80;;;;;;4933081;28;98192;-77
2023/08/09 02:57:57;;;;;;;81.80;52.42;;;18.80;86.90;;;;;;4936216;28;96720;-75
2023/08/09 03:00:23;;;;;;;81.55;52.17;;;18.80;86.70;;;;;;4957552;28;96987;-74
2023/08/09 03:02:49;;;;;;;81.53;52.45;;;18.80;86.90;;;;;;4956555;28;96602;-77
2023/08/09 03:05:15;;;;;;;81.93;52.45;;;18.80;86.70;;;;;;4943586;28;97837;-77
2023/08/09 03:07:41;;;;;;;82.28;52.13;;;18.80;86.80;;;;;;4967712;28;96375;-77
2023/08/09 03:10:08;;;;;;;81.35;52.35;;;18.80;87.00;;;;;;4933005;28;98351;-74
2023/08/09 03:12:34;;;;;;;81.05;52.03;;;18.80;86.80;;;;;;4966528;28;95701;-77
2023/08/09 03:14:59;;;;;;;82.55;52.45;;;18.70;86.80;;;;;;4947775;28;99340;-75
2023/08/09 03:17:25;;;;;;;81.05;52.28;;;18.80;87.10;;;;;;4918843;28;97275;-76
2023/08/09 03:19:51;;;;;;;80.93;52.30;;;18.70;86.90;;;;;;4943176;28;98073;-75
2023/08/09 03:22:17;;;;;;;81.53;52.15;;;18.80;86.90;;;;;;4927314;28;97523;-75
2023/08/09 03:24:43;;;;;;;81.22;52.25;;;18.70;86.80;;;;;;4949484;28;96011;-77
2023/08/09 03:27:09;;;;;;;81.43;52.47;;;18.80;87.00;;;;;;4937269;28;96560;-76
2023/08/09 03:29:35;;;;;;;81.93;52.63;;;18.70;86.90;;;;;;4940923;28;97322;-77
2023/08/09 03:32:00;;;;;;;81.80;52.33;;;18.70;86.90;;;;;;4938016;28;102787;-77
2023/08/09 03:34:26;;;;;;;81.53;52.30;;;18.70;87.00;;;;;;4971736;28;95012;-76
2023/08/09 03:36:51;;;;;;;81.95;52.45;;;18.70;87.00;;;;;;4940918;28;97031;-76
2023/08/09 03:39:17;;;;;;;80.63;52.03;;;18.70;87.00;;;;;;4952507;28;97651;-78
2023/08/09 03:41:43;;;;;;;81.75;52.28;;;18.70;87.20;;;;;;4939714;28;97749;-76
2023/08/09 03:44:08;;;;;;;82.53;52.55;;;18.70;87.10;;;;;;4955666;28;98445;-77
2023/08/09 03:46:34;;;;;;;82.10;52.50;;;18.70;87.10;;;;;;4954440;28;96826;-78
2023/08/09 03:49:00;;;;;;;82.13;52.60;;;18.70;87.10;;;;;;4949314;28;99451;-77
2023/08/09 03:51:26;;;;;;;81.68;52.38;;;18.70;87.10;;;;;;4927305;28;100208;-73
2023/08/09 03:53:51;;;;;;;81.55;52.55;;;18.70;87.20;;;;;;4966167;28;94807;-75
2023/08/09 03:56:17;;;;;;;80.78;52.22;;;18.70;87.50;;;;;;4945821;28;98032;-78
2023/08/09 03:58:43;;;;;;;80.97;52.35;;;18.70;87.90;;;;;;4937478;28;96418;-77
2023/08/09 04:01:08;;;;;;;81.88;52.45;;;18.70;88.20;;;;;;4942849;28;97850;-78
2023/08/09 04:03:34;;;;;;;80.45;51.80;;;18.70;88.20;;;;;;4967899;28;97090;-75
2023/08/09 04:06:02;;;;;;;82.07;52.45;;;18.70;88.60;;;;;;4951668;28;96692;-77
2023/08/09 04:08:29;;;;;;;80.95;52.30;;;18.70;87.80;;;;;;4942948;28;99870;-77
2023/08/09 04:10:54;;;;;;;82.82;52.90;;;18.70;88.10;;;;;;4945963;28;94868;-78
2023/08/09 04:13:21;;;;;;;80.78;52.20;;;18.70;87.80;;;;;;4971638;28;94120;-77
2023/08/09 04:15:46;;;;;;;82.32;52.95;;;18.70;89.10;;;;;;4946765;28;98434;-74
2023/08/09 04:18:14;;;;;;;82.15;53.05;;;18.70;87.40;;;;;;4966517;28;96147;-77
2023/08/09 04:20:40;;;;;;;81.40;52.40;;;18.70;88.10;;;;;;4955136;28;99730;-76
2023/08/09 04:23:06;;;;;;;81.10;52.47;;;18.70;88.20;;;;;;4961145;28;99357;-73
2023/08/09 04:25:32;;;;;;;81.60;52.28;;;18.70;89.80;;;;;;4928748;28;97711;-78
2023/08/09 04:27:58;;;;;;;81.07;52.25;;;18.70;88.10;;;;;;4969173;28;95028;-75
2023/08/09 04:30:24;;;;;;;80.95;52.65;;;18.70;88.50;;;;;;4957671;28;95337;-74
2023/08/09 04:32:49;;;;;;;81.65;52.80;;;18.70;87.90;;;;;;4961177;28;95559;-78
2023/08/09 04:35:15;;;;;;;81.43;52.75;;;18.70;87.60;;;;;;4946172;28;96864;-77
2023/08/09 04:37:41;;;;;;;81.80;52.88;;;18.70;87.90;;;;;;4956238;28;95860;-76
2023/08/09 04:40:10;;;;;;;81.00;52.50;;;18.70;87.60;;;;;;4968389;28;95634;-75
2023/08/09 04:42:43;;;;;;;81.68;52.40;;;18.70;87.70;;;;;;4963171;28;94961;-77
2023/08/09 04:45:12;;;;;;;82.28;52.50;;;18.70;87.80;;;;;;4928260;28;98018;-77
2023/08/09 04:47:39;;;;;;;80.45;52.20;;;18.70;88.20;;;;;;4967124;28;96092;-75
2023/08/09 04:50:06;;;;;;;81.20;52.78;;;18.70;88.50;;;;;;4948963;28;95469;-72
2023/08/09 04:52:34;;;;;;;81.40;52.65;;;18.70;87.80;;;;;;4949903;28;94733;-77
2023/08/09 04:55:00;;;;;;;81.70;52.38;;;18.70;88.30;;;;;;4940347;28;95824;-77
2023/08/09 04:57:26;;;;;;;83.03;53.72;;;18.60;88.40;;;;;;4961796;28;97566;-74
2023/08/09 04:59:51;;;;;;;80.93;52.38;;;18.60;87.60;;;;;;4956042;28;94638;-78
2023/08/09 05:02:17;;;;;;;81.22;52.80;;;18.60;88.30;;;;;;4960260;28;94301;-74
2023/08/09 05:04:42;;;;;;;81.57;52.60;;;18.60;88.00;;;;;;4960837;28;96666;-76
2023/08/09 05:07:09;;;;;;;82.63;53.65;;;18.60;88.90;;;;;;4969828;28;95696;-79
2023/08/09 05:09:35;;;;;;;84.78;53.25;;;18.60;87.80;;;;;;4959934;28;95747;-76
2023/08/09 05:12:01;;;;;;;82.72;53.60;;;18.60;88.00;;;;;;4947221;28;96015;-78
2023/08/09 05:14:26;;;;;;;81.75;52.45;;;18.60;88.60;;;;;;4956577;28;97507;-78
2023/08/09 05:16:53;;;;;;;83.68;53.53;;;18.60;88.30;;;;;;4965379;28;94654;-77
2023/08/09 05:19:20;;;;;;;82.38;53.72;;;18.60;87.80;;;;;;4965288;28;94726;-75
2023/08/09 05:21:46;;;;;;;82.30;53.38;;;18.60;87.50;;;;;;4958317;28;98850;-73
2023/08/09 05:24:12;;;;;;;83.50;54.65;;;18.60;87.40;;;;;;4953774;28;95542;-73
2023/08/09 05:26:38;;;;;;;82.55;53.17;;;18.60;87.60;;;;;;4945005;28;94772;-77
2023/08/09 05:29:07;;;;;;;82.97;53.75;;;18.70;88.10;;;;;;4965841;28;95522;-72
2023/08/09 05:31:33;;;;;;;83.60;54.38;;;18.70;87.70;;;;;;4958013;28;95771;-77
2023/08/09 05:33:58;;;;;;;84.22;54.95;;;18.70;87.50;;;;;;4949960;28;96740;-75
2023/08/09 05:36:24;;;;;;;82.55;53.17;;;18.70;87.40;;;;;;4957301;28;95030;-77
2023/08/09 05:38:50;;;;;;;84.70;54.38;;;18.70;88.10;;;;;;4943471;28;97759;-73
2023/08/09 05:41:16;;;;;;;84.15;54.47;;;18.70;87.60;;;;;;4961492;28;95584;-77
2023/08/09 05:43:41;;;;;;;84.10;54.42;;;18.70;87.40;;;;;;4942486;28;97917;-77
2023/08/09 05:46:07;;;;;;;85.35;54.40;;;18.60;87.50;;;;;;4948149;28;96393;-75
2023/08/09 05:48:33;;;;;;;82.32;53.78;;;18.60;87.60;;;;;;4956575;28;95189;-75
2023/08/09 05:50:59;;;;;;;83.00;53.47;;;18.70;89.40;;;;;;4967376;28;96045;-75
2023/08/09 05:53:25;;;;;;;83.47;52.95;;;18.70;87.90;;;;;;4943030;28;97907;-77
2023/08/09 05:55:50;;;;;;;82.63;53.80;;;18.70;88.70;;;;;;4937971;28;96151;-77
2023/08/09 05:58:16;;;;;;;82.63;53.45;;;18.60;87.70;;;;;;4957322;28;96117;-77
2023/08/09 06:00:42;;;;;;;83.30;52.90;;;18.60;87.60;;;;;;4947097;28;97153;-75
2023/08/09 06:03:07;;;;;;;83.32;54.20;;;18.70;88.20;;;;;;4945964;28;96800;-76
2023/08/09 06:05:33;;;;;;;83.60;53.42;;;18.70;87.40;;;;;;4938703;28;97294;-76
2023/08/09 06:07:59;;;;;;;82.47;53.75;;;18.70;87.90;;;;;;4952726;28;95960;-76
2023/08/09 06:10:26;;;;;;;81.93;52.15;;;18.70;87.80;;;;;;4926113;28;95148;-77
2023/08/09 06:12:54;;;;;;;81.78;53.03;;;18.70;89.10;;;;;;4950745;28;95469;-76
2023/08/09 06:15:21;;;;;;;83.57;53.75;;;18.70;88.40;;;;;;4953782;28;94924;-75
2023/08/09 06:17:47;;;;;;;83.10;52.88;;;18.70;87.50;;;;;;4959562;28;97579;-75
2023/08/09 06:20:13;;;;;;;83.70;53.17;;;18.70;87.40;;;;;;4948261;28;95926;-75
2023/08/09 06:22:40;;;;;;;82.78;53.38;;;18.70;87.90;;;;;;4948565;28;95907;-76
2023/08/09 06:25:07;;;;;;;83.40;52.80;;;18.70;88.40;;;;;;4951400;28;96779;-78
2023/08/09 06:27:34;;;;;;;82.63;53.75;;;18.80;87.70;;;;;;4944568;28;96048;-77
2023/08/09 06:30:00;;;;;;;83.03;53.25;;;18.70;87.10;;;;;;4935016;28;96225;-77
2023/08/09 06:32:26;;;;;;;83.60;53.47;;;18.70;88.20;;;;;;4937468;28;95640;-71
2023/08/09 06:34:52;;;;;;;82.60;52.40;;;18.80;87.30;;;;;;4920092;28;97262;-76
2023/08/09 06:37:18;;;;;;;82.22;53.25;;;18.70;89.60;;;;;;4935480;28;100851;-75
2023/08/09 06:39:44;;;;;;;82.32;53.17;;;18.80;87.80;;;;;;4950220;28;95932;-78
2023/08/09 06:42:12;;;;;;;85.43;53.35;;;18.80;88.10;;;;;;4932335;28;97603;-79
2023/08/09 06:44:38;;;;;;;82.65;53.22;;;18.80;89.00;;;;;;4910698;22;101255;-45
2023/08/09 06:47:04;;;;;;;83.50;53.80;;;18.80;87.10;;;;;;4907694;28;96962;-46
2023/08/09 06:49:30;;;;;;;82.15;52.53;;;18.90;87.50;;;;;;4915948;28;96109;-45
2023/08/09 06:51:58;;;;;;;83.20;52.88;;;18.90;89.30;;;;;;4897788;28;99822;-46
2023/08/09 06:54:25;;;;;;;85.20;53.08;;;18.90;87.50;;;;;;4894799;28;96376;-46
2023/08/09 06:56:50;;;;;;;97.30;55.20;;;19.00;90.10;;;;;;4910556;28;96239;-47
2023/08/09 06:59:17;;;;;;;90.40;54.40;;;19.00;87.90;;;;;;4930511;28;96286;-48
2023/08/09 07:01:47;;;;;;;96.93;56.25;;;19.00;87.90;;;;;;4909658;28;96589;-44
2023/08/09 07:04:13;;;;;;;90.40;55.45;;;19.10;87.10;;;;;;4913154;28;94965;-45
2023/08/09 07:06:39;;;;;;;107.82;58.20;;;19.10;86.60;;;;;;4925863;28;98548;-43
2023/08/09 07:09:05;;;;;;;99.90;57.53;;;19.10;88.80;;;;;;4913757;28;95557;-44
2023/08/09 07:11:31;;;;;;;100.93;57.63;;;19.20;88.50;;;;;;4912133;28;95876;-46
2023/08/09 07:13:56;;;;;;;106.78;58.15;;;19.20;87.20;;;;;;4930641;28;95165;-43
2023/08/09 07:16:22;;;;;;;101.15;56.65;;;19.20;89.60;;;;;;4929846;28;96336;-45
2023/08/09 07:18:49;;;;;;;97.30;56.17;;;19.30;88.50;;;;;;4906388;28;95225;-46
2023/08/09 07:21:15;;;;;;;97.45;56.47;;;19.20;87.70;;;;;;4903546;28;95533;-46
2023/08/09 07:23:40;;;;;;;96.75;57.17;;;19.30;88.30;;;;;;4911929;28;97050;-45
2023/08/09 07:26:06;;;;;;;94.28;55.92;;;19.30;89.80;;;;;;4924135;28;98226;-47
2023/08/09 07:28:32;;;;;;;92.93;55.67;;;19.30;88.20;;;;;;4926628;28;96659;-46
2023/08/09 07:30:57;;;;;;;96.38;56.63;;;19.40;87.30;;;;;;4924540;28;94957;-44
2023/08/09 07:33:23;;;;;;;95.93;56.28;;;19.40;88.40;;;;;;4916037;28;95536;-45
2023/08/09 07:35:49;;;;;;;96.18;56.33;;;19.40;88.60;;;;;;4922007;28;96805;-46
2023/08/09 07:38:16;;;;;;;87.82;54.63;;;19.50;88.50;;;;;;4926048;28;94837;-44
2023/08/09 07:40:41;;;;;;;93.88;55.65;;;19.50;87.40;;;;;;4925109;28;95581;-46
2023/08/09 07:43:07;;;;;;;89.50;54.45;;;19.50;89.70;;;;;;4928290;28;97995;-45
2023/08/09 07:45:33;;;;;;;86.97;54.42;;;19.50;85.90;;;;;;4890092;28;98303;-48
2023/08/09 07:47:59;;;;;;;88.35;54.85;;;19.50;86.00;;;;;;4912790;28;96430;-47
2023/08/09 07:50:25;;;;;;;90.75;55.15;;;19.50;85.70;;;;;;4920071;28;95320;-47
2023/08/09 07:52:51;;;;;;;91.97;55.13;;;19.50;88.00;;;;;;4917806;28;94464;-45
2023/08/09 07:55:18;;;;;;;94.72;55.50;;;19.50;89.00;;;;;;4896457;28;96336;-45
2023/08/09 07:57:44;;;;;;;89.35;54.80;;;19.50;89.20;;;;;;4883874;28;96877;-45
2023/08/09 08:00:14;;;;;;;90.80;55.10;;;19.60;87.30;;;;;;4920219;28;98511;-46
2023/08/09 08:02:42;;;;;;;89.25;54.83;;;19.60;89.00;;;;;;4911277;28;96957;-49
2023/08/09 08:05:09;;;;;;;90.88;55.30;;;19.60;86.70;;;;;;4910051;28;95605;-46
2023/08/09 08:07:34;;;;;;;89.60;54.53;;;19.70;87.50;;;;;;4901212;28;95224;-47
2023/08/09 08:10:01;;;;;;;91.35;54.80;;;19.70;88.00;;;;;;4908763;28;96449;-47
2023/08/09 08:12:28;;;;;;;89.75;54.63;;;19.70;87.50;;;;;;4919682;28;97777;-46
2023/08/09 08:14:54;;;;;;;92.28;54.50;;;19.70;88.00;;;;;;4922936;28;95643;-48
2023/08/09 08:17:20;;;;;;;90.78;55.05;;;19.70;87.60;;;;;;4920653;28;94278;-48
2023/08/09 08:19:55;;;;;;;89.53;54.33;;;19.80;87.90;;;;;;4909973;28;97405;-44
2023/08/09 08:22:21;;;;;;;86.90;54.17;;;19.80;87.00;;;;;;4912662;28;97555;-44
2023/08/09 08:24:47;;;;;;;92.43;54.75;;;19.80;88.10;;;;;;4898538;28;97871;-44
2023/08/09 08:27:12;;;;;;;87.75;54.50;;;19.80;87.90;;;;;;4897899;28;96784;-47
2023/08/09 08:29:38;;;;;;;89.82;55.00;;;19.80;87.30;;;;;;4909130;28;96868;-48
2023/08/09 08:32:05;;;;;;;93.15;54.95;;;19.90;88.90;;;;;;4910625;28;95319;-43
2023/08/09 08:34:31;;;;;;;91.68;54.92;;;19.90;86.80;;;;;;4889098;28;98755;-45
2023/08/09 08:37:01;;;;;;;88.93;54.85;;;19.90;87.10;;;;;;4901733;28;96988;-44
2023/08/09 08:39:31;;;;;;;89.30;55.40;;;20.00;87.10;;;;;;4863902;28;99739;-46
2023/08/09 08:41:57;;;;;;;89.63;55.58;;;20.00;88.90;;;;;;4914171;28;96152;-44
2023/08/09 08:44:24;;;;;;;90.18;54.83;;;20.00;88.50;;;;;;4903431;28;98365;-45
2023/08/09 08:46:51;;;;;;;94.00;54.47;;;20.00;86.70;;;;;;4926291;28;96786;-46
2023/08/09 08:49:20;;;;;;;86.70;54.58;;;20.10;86.90;;;;;;4910577;28;96722;-47
2023/08/09 08:51:50;;;;;;;84.90;53.65;;;20.10;86.70;;;;;;4921896;28;95607;-47
2023/08/09 08:54:16;;;;;;;85.05;53.42;;;20.20;83.60;;;;;;4928264;28;96050;-45
2023/08/09 08:56:42;;;;;;;87.03;53.60;;;20.20;73.10;;;;;;4900628;28;98963;-46
2023/08/09 08:59:08;;;;;;;85.22;53.47;;;20.30;77.00;;;;;;4889220;28;96101;-45
2023/08/09 09:01:34;;;;;;;84.32;53.22;;;20.30;73.30;;;;;;4891449;28;99823;-45
2023/08/09 09:04:01;;;;;;;84.05;53.22;;;20.40;72.90;;;;;;4902981;28;98150;-46
2023/08/09 09:06:27;;;;;;;83.95;53.25;;;20.50;68.50;;;;;;4904357;28;97465;-47
2023/08/09 09:08:56;;;;;;;84.82;52.80;;;20.50;70.10;;;;;;4909313;28;98755;-47
2023/08/09 09:11:22;;;;;;;84.75;53.15;;;20.60;68.40;;;;;;4891496;28;99195;-47
2023/08/09 09:13:50;;;;;;;83.22;52.85;;;20.60;69.40;;;;;;4904447;28;99666;-46
2023/08/09 09:16:20;;;;;;;84.70;53.45;;;20.70;67.00;;;;;;4896515;28;97698;-46
2023/08/09 09:18:48;;;;;;;84.15;52.95;;;20.70;67.00;;;;;;4915969;28;97798;-47
2023/08/09 09:21:18;;;;;;;86.50;53.10;;;20.80;67.80;;;;;;4916934;28;98106;-44
2023/08/09 09:23:45;;;;;;;84.30;53.08;;;20.80;65.40;;;;;;4897773;28;97523;-46
2023/08/09 09:26:14;;;;;;;85.05;53.15;;;20.80;64.40;;;;;;4903989;28;98041;-45
2023/08/09 09:28:44;;;;;;;84.35;53.10;;;20.80;64.30;;;;;;4911903;28;98294;-49
2023/08/09 09:31:12;;;;;;;83.78;53.08;;;20.90;63.00;;;;;;4896925;28;96879;-48
2023/08/09 09:33:41;;;;;;;84.20;53.03;;;20.80;63.60;;;;;;4889339;28;94965;-46
2023/08/09 09:36:10;;;;;;;84.28;53.08;;;20.90;65.60;;;;;;4902647;28;94915;-46
2023/08/09 09:38:36;;;;;;;85.18;53.00;;;20.90;62.30;;;;;;4912483;28;96034;-49
2023/08/09 09:41:03;;;;;;;84.30;53.15;;;21.00;61.50;;;;;;4902155;28;98521;-47
2023/08/09 09:43:39;;;;;;;84.78;53.50;;;21.00;63.90;;;;;;4902692;28;96268;-46
2023/08/09 09:46:17;;;;;;;84.80;53.13;;;21.00;64.40;;;;;;4900669;28;99959;-46
2023/08/09 09:48:47;;;;;;;84.43;53.20;;;21.00;61.10;;;;;;4896654;28;100081;-49
2023/08/09 09:51:16;;;;;;;85.10;53.25;;;21.00;63.50;;;;;;4902171;28;100017;-45
2023/08/09 09:53:43;;;;;;;84.93;53.03;;;21.10;62.40;;;;;;4890860;28;102005;-47
2023/08/09 09:56:09;;;;;;;84.40;53.00;;;21.10;63.40;;;;;;4914105;28;94487;-48
2023/08/09 09:58:34;;;;;;;86.00;53.42;;;21.10;63.10;;;;;;4902106;28;97501;-48
2023/08/09 10:01:02;;;;;;;85.25;53.63;;;21.20;63.50;;;;;;4906594;28;97640;-45
2023/08/09 10:03:32;;;;;;;85.43;53.53;;;21.20;63.20;;;;;;4899060;28;98325;-45
2023/08/09 10:05:59;;;;;;;87.55;53.67;;;21.30;63.30;;;;;;4895190;28;95065;-47
2023/08/09 10:08:27;;;;;;;85.70;53.65;;;21.30;62.70;;;;;;4860976;28;95569;-44
2023/08/09 10:10:54;;;;;;;87.45;53.55;;;21.30;64.90;;;;;;4895452;28;96577;-43
2023/08/09 10:13:22;;;;;;;85.57;53.83;;;21.30;62.90;;;;;;4908126;28;96436;-44
2023/08/09 10:16:02;;;;;;;86.85;53.65;;;21.30;65.10;;;;;;4913724;28;96773;-45
2023/08/09 10:18:32;;;;;;;87.30;54.15;;;21.40;62.70;;;;;;4912761;28;95190;-44
2023/08/09 10:21:00;;;;;;;87.50;54.17;;;21.40;64.60;;;;;;4913382;28;95196;-46
2023/08/09 10:23:29;;;;;;;86.32;54.15;;;21.40;63.00;;;;;;4901570;28;95077;-44
2023/08/09 10:25:56;;;;;;;87.38;54.28;;;21.50;63.60;;;;;;4913148;28;95423;-44
2023/08/09 10:28:44;;;;;;;86.35;54.33;;;21.60;62.60;;;;;;4903312;28;99067;-44
2023/08/09 10:31:10;;;;;;;87.43;54.50;;;21.60;64.70;;;;;;4891526;28;96798;-42
2023/08/09 10:33:36;;;;;;;86.50;54.53;;;21.60;63.20;;;;;;4888079;28;96018;-44
2023/08/09 10:36:02;;;;;;;89.82;54.72;;;21.50;61.20;;;;;;4899880;28;97315;-44
2023/08/09 10:38:31;;;;;;;89.03;54.65;;;21.60;65.20;;;;;;4892762;28;99622;-43
2023/08/09 10:40:58;;;;;;;86.88;54.47;;;21.80;65.60;;;;;;4920956;28;95762;-45
2023/08/09 10:43:30;;;;;;;88.75;54.80;;;21.90;65.50;;;;;;4922278;28;98172;-44
2023/08/09 10:45:56;;;;;;;88.50;54.30;;;22.00;63.00;;;;;;4893849;28;93996;-46
2023/08/09 10:48:29;;;;;;;87.43;54.45;;;22.10;60.20;;;;;;4912834;28;95617;-46
2023/08/09 10:51:13;;;;;;;87.40;54.50;;;22.10;62.70;;;;;;4893808;28;96418;-46
2023/08/09 10:54:01;;;;;;;89.07;54.75;;;22.00;61.00;;;;;;4908418;28;97092;-47
2023/08/09 10:56:33;;;;;;;90.82;54.85;;;22.00;59.60;;;;;;4878819;28;99121;-46
2023/08/09 10:59:07;;;;;;;86.60;54.33;;;22.10;61.80;;;;;;4892890;28;97317;-44
2023/08/09 11:01:37;;;;;;;87.28;54.28;;;22.10;60.50;;;;;;4915184;28;96814;-46
2023/08/09 11:04:07;;;;;;;85.60;53.88;;;21.90;57.00;;;;;;4918904;28;96342;-47
2023/08/09 11:06:36;;;;;;;88.23;53.90;;;21.90;60.00;;;;;;4901941;28;95219;-46
2023/08/09 11:09:11;;;;;;;86.00;54.03;;;21.90;59.10;;;;;;4900592;28;98984;-48
2023/08/09 11:11:37;;;;;;;87.13;53.85;;;22.00;59.20;;;;;;4903675;28;97897;-48
2023/08/09 11:14:04;;;;;;;88.43;53.83;;;22.00;57.90;;;;;;4881230;28;97168;-46
2023/08/09 11:16:30;;;;;;;89.35;54.05;;;22.00;54.80;;;;;;4903593;28;96097;-44
2023/08/09 11:19:09;;;;;;;85.57;53.75;;;21.90;53.60;;;;;;4906853;28;103967;-46
2023/08/09 11:21:46;;;;;;;87.55;53.97;;;22.00;56.70;;;;;;4888682;28;98215;-45
2023/08/09 11:24:14;;;;;;;86.38;53.83;;;22.00;55.90;;;;;;4907255;28;98301;-46
2023/08/09 11:26:55;;;;;;;87.82;54.17;;;22.00;59.50;;;;;;4903804;28;94961;-47
2023/08/09 11:29:22;;;;;;;88.32;54.35;;;22.00;58.20;;;;;;4901077;28;96800;-43
2023/08/09 11:31:50;;;;;;;86.63;53.97;;;22.00;56.80;;;;;;4917151;28;98595;-49
2023/08/09 11:34:18;;;;;;;88.10;54.15;;;22.10;58.00;;;;;;4908951;28;94751;-47
2023/08/09 11:36:46;;;;;;;89.07;54.25;;;22.10;58.50;;;;;;4904365;28;98240;-46
2023/08/09 11:39:13;;;;;;;86.45;53.97;;;22.10;58.70;;;;;;4911800;28;95546;-45
2023/08/09 11:41:55;;;;;;;87.85;54.30;;;22.20;56.90;;;;;;4918859;28;96367;-46
2023/08/09 11:44:43;;;;;;;85.85;54.00;;;22.20;56.00;;;;;;4921612;28;95699;-46
2023/08/09 11:47:10;;;;;;;86.97;54.15;;;22.20;56.20;;;;;;4910477;28;94709;-46
2023/08/09 11:49:36;;;;;;;86.50;54.38;;;22.10;54.20;;;;;;4900278;28;97255;-46
2023/08/09 11:52:02;;;;;;;88.20;54.13;;;22.10;56.20;;;;;;4899869;28;97490;-47
2023/08/09 11:54:30;;;;;;;88.15;54.13;;;22.00;53.70;;;;;;4889279;28;97129;-46
2023/08/09 11:56:56;;;;;;;88.35;54.10;;;22.10;56.00;;;;;;4900609;28;97226;-46
2023/08/09 11:59:23;;;;;;;89.30;54.13;;;22.20;56.40;;;;;;4900681;28;97914;-44
2023/08/09 12:01:55;;;;;;;87.65;54.25;;;22.20;56.40;;;;;;4879264;28;95891;-48
2023/08/09 12:04:23;;;;;;;87.15;54.05;;;22.30;57.10;;;;;;4908431;28;94814;-47
2023/08/09 12:06:55;;;;;;;87.80;54.13;;;22.30;58.90;;;;;;4893999;28;94395;-47
2023/08/09 12:09:30;;;;;;;87.97;54.25;;;22.30;56.50;;;;;;4886187;28;100210;-45
2023/08/09 12:12:14;;;;;;;87.38;53.92;;;22.20;56.20;;;;;;4894398;28;94783;-45
2023/08/09 12:14:45;;;;;;;87.03;54.15;;;22.10;55.70;;;;;;4909962;28;98803;-46
2023/08/09 12:17:18;;;;;;;88.78;54.42;;;22.20;54.90;;;;;;4905772;28;97125;-45
2023/08/09 12:19:44;;;;;;;88.78;54.38;;;22.20;55.80;;;;;;4896562;28;97557;-44
2023/08/09 12:22:10;;;;;;;87.22;54.15;;;22.30;56.00;;;;;;4907983;28;95611;-48
2023/08/09 12:24:35;;;;;;;87.13;54.38;;;22.30;58.00;;;;;;4909037;28;94778;-47
2023/08/09 12:27:03;;;;;;;87.93;54.42;;;22.30;57.50;;;;;;4916075;28;94498;-47